Time;durP1;ratioP1;P1;durP2;ratioP2;P2;SDS_P1;SDS_P2;PMS_P1;PMS_P2;Temp;Humidity;BMP_temperature;BMP_pressure;BME280_temperature;BME280_humidity;BME280_pressure;Samples;Min_cycle;Max_cycle;Signal;HPM_P1;HPM_P2
2022/05/30 00:01:20;;;;;;;2.58;1.42;;;;;;;16.80;69.08;100598.30;1684060;85;25685;-55
2022/05/30 00:03:48;;;;;;;1.67;1.50;;;;;;;16.77;68.84;100605.45;1684231;85;25866;-53
2022/05/30 00:06:20;;;;;;;2.30;1.72;;;;;;;16.77;68.96;100605.45;1684047;84;25997;-55
2022/05/30 00:08:47;;;;;;;7.97;1.92;;;;;;;16.75;69.52;100594.77;1683903;84;27450;-55
2022/05/30 00:11:16;;;;;;;2.95;1.70;;;;;;;16.71;69.27;100585.31;1683919;83;25878;-55
2022/05/30 00:13:44;;;;;;;2.77;1.80;;;;;;;16.68;69.29;100587.02;1687057;84;25793;-55
2022/05/30 00:16:15;;;;;;;2.37;1.80;;;;;;;16.66;69.46;100591.28;1683903;83;25959;-55
2022/05/30 00:18:42;;;;;;;3.22;1.92;;;;;;;16.67;69.45;100590.27;1684163;85;25726;-54
2022/05/30 00:21:09;;;;;;;3.42;1.90;;;;;;;16.65;69.77;100602.31;1683917;84;28491;-55
2022/05/30 00:23:35;;;;;;;3.62;1.85;;;;;;;16.63;69.95;100597.59;1684134;85;25771;-56
2022/05/30 00:26:07;;;;;;;2.55;1.95;;;;;;;16.58;69.86;100589.46;1687374;84;25835;-55
2022/05/30 00:28:35;;;;;;;1.85;1.72;;;;;;;16.62;69.96;100587.75;1687862;84;25845;-54
2022/05/30 00:31:03;;;;;;;3.72;1.77;;;;;;;16.63;70.17;100593.00;1692936;84;25498;-54
2022/05/30 00:33:31;;;;;;;2.33;1.70;;;;;;;16.64;70.06;100588.39;1692881;84;27530;-55
2022/05/30 00:35:58;;;;;;;9.20;1.95;;;;;;;16.66;70.28;100603.51;1692740;84;25747;-55
2022/05/30 00:38:25;;;;;;;2.87;2.05;;;;;;;16.69;70.57;100613.16;1692842;84;25559;-54
2022/05/30 00:40:52;;;;;;;4.83;2.00;;;;;;;16.66;70.13;100611.66;1692960;84;25956;-54
2022/05/30 00:43:27;;;;;;;3.50;1.90;;;;;;;16.63;70.04;100619.32;1692871;84;25823;-54
2022/05/30 00:45:58;;;;;;;4.15;2.00;;;;;;;16.65;70.67;100634.41;1690255;83;27674;-54
2022/05/30 00:48:32;;;;;;;2.10;1.92;;;;;;;16.69;70.17;100657.98;1684900;85;25502;-55
2022/05/30 00:51:15;;;;;;;3.72;2.20;;;;;;;16.75;70.12;100670.83;1693792;83;25813;-54
2022/05/30 00:53:46;;;;;;;3.27;2.08;;;;;;;16.83;70.12;100666.70;1713377;83;27976;-55
2022/05/30 00:56:14;;;;;;;2.72;2.12;;;;;;;16.92;70.16;100681.58;1713659;83;25714;-56
2022/05/30 00:58:47;;;;;;;2.80;2.15;;;;;;;16.98;70.18;100681.75;1713716;83;28183;-54
2022/05/30 01:01:15;;;;;;;3.42;1.92;;;;;;;16.97;69.84;100672.43;1713219;81;25893;-55
2022/05/30 01:06:43;;;;;;;3.40;2.10;;;;;;;16.98;70.20;100657.81;1713711;83;26054;-53
2022/05/30 01:09:23;;;;;;;5.72;2.40;;;;;;;17.06;70.59;100663.19;1713519;83;25497;-54
2022/05/30 01:12:00;;;;;;;3.77;2.00;;;;;;;17.08;70.20;100674.70;1713674;83;27485;-54
2022/05/30 01:14:35;;;;;;;3.12;2.22;;;;;;;17.12;71.39;100674.69;1713448;83;25938;-54
2022/05/30 01:17:10;;;;;;;3.05;2.10;;;;;;;17.03;70.87;100667.62;1713560;83;25759;-55
2022/05/30 01:20:05;;;;;;;5.35;2.10;;;;;;;16.99;70.70;100640.45;1713388;83;26910;-55
2022/05/30 01:22:51;;;;;;;3.65;2.42;;;;;;;16.94;70.60;100635.60;1713619;83;25505;-55
2022/05/30 01:26:04;;;;;;;4.10;2.40;;;;;;;16.90;70.78;100656.80;1713432;83;27568;-54
2022/05/30 01:28:50;;;;;;;2.95;2.37;;;;;;;16.84;70.83;100677.07;1703661;83;25738;-55
2022/05/30 01:31:18;;;;;;;4.60;2.35;;;;;;;16.79;70.71;100682.17;1692854;83;25491;-53
2022/05/30 01:33:45;;;;;;;3.17;2.37;;;;;;;16.84;70.96;100698.80;1692900;84;25853;-55
2022/05/30 01:36:12;;;;;;;6.67;2.52;;;;;;;16.88;71.13;100693.33;1693425;84;25945;-54
2022/05/30 01:38:40;;;;;;;2.90;2.40;;;;;;;16.96;71.31;100692.47;1692994;84;27479;-55
2022/05/30 01:41:08;;;;;;;2.75;2.17;;;;;;;17.03;71.46;100667.62;1693076;84;26072;-54
2022/05/30 01:43:35;;;;;;;5.70;2.75;;;;;;;17.07;72.53;100621.89;1692959;84;25891;-55
2022/05/30 01:46:07;;;;;;;4.70;2.90;;;;;;;16.93;73.04;100633.91;1689286;83;26408;-54
2022/05/30 01:48:37;;;;;;;7.37;3.20;;;;;;;16.84;72.64;100630.36;1684918;85;25813;-54
2022/05/30 01:51:05;;;;;;;5.40;2.42;;;;;;;16.79;72.63;100647.73;1675080;85;27661;-55
2022/05/30 01:53:32;;;;;;;6.65;3.22;;;;;;;16.76;72.83;100627.70;1657373;86;25815;-55
2022/05/30 01:56:04;;;;;;;5.95;2.80;;;;;;;16.70;72.82;100615.69;1651223;86;25877;-55
2022/05/30 01:58:34;;;;;;;6.12;3.95;;;;;;;16.67;73.44;100614.70;1667813;85;25783;-54
2022/05/30 02:01:26;;;;;;;9.85;3.70;;;;;;;16.61;73.67;100607.78;1664130;86;25791;-54
2022/05/30 02:03:55;;;;;;;6.30;3.12;;;;;;;16.53;74.33;100602.75;1662826;84;27452;-53
2022/05/30 02:06:26;;;;;;;4.20;3.40;;;;;;;16.45;74.48;100593.80;1658458;86;25734;-55
2022/05/30 02:08:54;;;;;;;6.37;3.85;;;;;;;16.33;75.43;100576.55;1661070;85;25754;-55
2022/05/30 02:11:22;;;;;;;8.13;3.85;;;;;;;16.23;75.94;100564.58;1661992;86;26523;-54
2022/05/30 02:13:51;;;;;;;5.97;3.92;;;;;;;16.14;76.72;100575.14;1660115;85;26004;-54
2022/05/30 02:19:06;;;;;;;11.68;4.45;;;;;;;16.02;77.05;100575.19;1660314;86;25926;-53
2022/05/30 02:21:34;;;;;;;14.63;4.85;;;;;;;15.96;77.00;100553.19;1658574;85;25747;-55
2022/05/30 02:24:04;;;;;;;7.20;4.42;;;;;;;15.94;77.63;100513.70;1657583;85;25916;-54
2022/05/30 02:26:33;;;;;;;11.45;4.55;;;;;;;15.90;77.99;100495.58;1638085;85;25754;-54
2022/05/30 02:29:01;;;;;;;13.68;4.25;;;;;;;15.87;78.12;100485.08;1659968;85;27600;-55
2022/05/30 02:31:28;;;;;;;7.08;3.58;;;;;;;15.84;78.07;100465.08;1692543;84;25805;-55
2022/05/30 02:36:44;;;;;;;7.08;4.00;;;;;;;15.74;80.68;100470.70;1685030;84;26475;-55
2022/05/30 02:39:17;;;;;;;8.78;3.80;;;;;;;15.74;79.30;100483.41;1685287;84;25736;-53
2022/05/30 02:41:52;;;;;;;10.43;4.40;;;;;;;15.79;79.16;100456.61;1684927;84;27629;-53
2022/05/30 02:44:23;;;;;;;11.05;4.65;;;;;;;15.83;79.24;100467.42;1685106;84;26084;-54
2022/05/30 02:46:54;;;;;;;5.58;3.50;;;;;;;15.86;79.06;100511.03;1685076;84;25800;-54
2022/05/30 02:49:22;;;;;;;7.45;4.42;;;;;;;15.89;80.07;100503.88;1685274;85;26322;-54
2022/05/30 02:51:50;;;;;;;12.20;4.17;;;;;;;15.88;79.40;100492.19;1680587;83;25930;-55
2022/05/30 02:54:18;;;;;;;6.45;3.95;;;;;;;15.85;79.64;100458.63;1713850;83;28285;-53
2022/05/30 02:57:05;;;;;;;5.95;4.50;;;;;;;15.83;79.98;100463.34;1713381;83;25822;-55
2022/05/30 02:59:32;;;;;;;6.72;4.40;;;;;;;15.77;79.72;100469.00;1713797;83;25513;-55
2022/05/30 03:02:01;;;;;;;6.78;5.05;;;;;;;15.76;80.20;100465.95;1713599;83;27980;-54
2022/05/30 03:04:29;;;;;;;10.18;4.60;;;;;;;15.74;80.44;100469.34;1714105;83;25767;-54
2022/05/30 03:06:56;;;;;;;7.65;4.58;;;;;;;15.77;80.11;100470.85;1713663;83;27500;-54
2022/05/30 03:09:23;;;;;;;9.35;4.75;;;;;;;15.79;80.32;100464.75;1713425;83;25786;-55
2022/05/30 03:11:51;;;;;;;6.95;5.05;;;;;;;15.77;81.00;100441.88;1713157;83;25795;-55
2022/05/30 03:14:18;;;;;;;7.00;4.40;;;;;;;15.73;80.66;100443.77;1713563;83;27857;-55
2022/05/30 03:16:45;;;;;;;7.12;5.22;;;;;;;15.74;81.10;100440.87;1713684;83;25744;-55
2022/05/30 03:19:15;;;;;;;9.50;4.17;;;;;;;15.76;80.70;100439.33;1713857;83;28284;-56
2022/05/30 03:21:42;;;;;;;5.33;4.78;;;;;;;15.81;80.63;100443.72;1713686;83;25823;-53
2022/05/30 03:24:09;;;;;;;12.40;4.53;;;;;;;15.86;80.76;100456.25;1713200;83;25472;-55
2022/05/30 03:26:37;;;;;;;9.25;4.85;;;;;;;15.91;80.59;100456.55;1713726;83;25762;-54
2022/05/30 03:29:05;;;;;;;6.70;4.67;;;;;;;15.94;80.54;100454.02;1695634;83;26666;-54
2022/05/30 03:31:34;;;;;;;6.95;4.80;;;;;;;15.99;80.42;100462.45;1685012;85;28267;-54
2022/05/30 03:34:01;;;;;;;8.40;5.30;;;;;;;16.06;80.39;100470.72;1684815;85;26000;-51
2022/05/30 03:36:29;;;;;;;9.35;5.53;;;;;;;16.11;80.29;100473.73;1684968;85;25661;-56
2022/05/30 03:39:10;;;;;;;9.95;5.00;;;;;;;16.17;80.13;100480.30;1680501;85;25810;-55
2022/05/30 03:41:55;;;;;;;8.78;4.70;;;;;;;16.24;79.98;100487.56;1685043;85;25707;-54
2022/05/30 03:44:26;;;;;;;7.28;5.40;;;;;;;16.34;80.07;100479.69;1676663;85;26906;-55
2022/05/30 03:46:53;;;;;;;11.10;5.37;;;;;;;16.45;79.84;100484.67;1684910;85;25793;-55
2022/05/30 03:49:20;;;;;;;7.05;4.53;;;;;;;16.51;79.29;100479.02;1685151;85;25815;-56
2022/05/30 03:51:47;;;;;;;11.20;4.85;;;;;;;16.56;79.04;100476.09;1704298;83;25768;-55
2022/05/30 03:54:15;;;;;;;7.30;4.90;;;;;;;16.56;78.94;100463.87;1713887;83;25533;-55
2022/05/30 03:56:41;;;;;;;7.03;4.80;;;;;;;16.59;78.50;100452.66;1713646;83;27495;-55
2022/05/30 03:59:08;;;;;;;10.82;4.78;;;;;;;16.62;78.36;100447.89;1713741;83;25810;-56
2022/05/30 04:01:35;;;;;;;8.55;5.08;;;;;;;16.63;78.34;100441.44;1690582;81;25955;-54
2022/05/30 04:04:02;;;;;;;8.78;4.92;;;;;;;16.62;78.48;100432.95;1689061;84;25816;-56
2022/05/30 04:06:29;;;;;;;8.33;4.90;;;;;;;16.64;78.20;100437.17;1676850;84;25956;-55
2022/05/30 04:08:56;;;;;;;6.42;4.67;;;;;;;16.65;78.26;100421.70;1670203;84;27707;-55
2022/05/30 04:11:28;;;;;;;10.35;4.47;;;;;;;16.62;78.11;100417.49;1648914;84;25760;-54
2022/05/30 04:14:07;;;;;;;6.35;4.40;;;;;;;16.54;77.89;100397.21;1672934;85;25759;-55
2022/05/30 04:16:35;;;;;;;10.30;4.55;;;;;;;16.49;77.82;100396.94;1672428;84;25828;-55
2022/05/30 04:19:04;;;;;;;5.45;4.47;;;;;;;16.46;77.96;100388.63;1682115;84;25523;-56
2022/05/30 04:21:31;;;;;;;7.95;5.10;;;;;;;16.40;78.15;100363.08;1677724;84;27601;-55
2022/05/30 04:23:57;;;;;;;8.83;4.97;;;;;;;16.34;77.97;100380.61;1695461;84;25735;-55
2022/05/30 04:26:25;;;;;;;8.25;5.00;;;;;;;16.33;78.01;100419.63;1675326;85;25792;-55
2022/05/30 04:28:53;;;;;;;8.50;4.90;;;;;;;16.34;78.13;100459.33;1692436;84;26159;-55
2022/05/30 04:31:39;;;;;;;6.15;4.65;;;;;;;16.32;77.91;100483.09;1690488;83;25532;-55
2022/05/30 04:34:08;;;;;;;9.75;4.78;;;;;;;16.37;77.94;100506.45;1688406;83;28320;-55
2022/05/30 04:36:35;;;;;;;9.30;5.20;;;;;;;16.38;78.06;100522.58;1707356;83;26113;-55
2022/05/30 04:39:01;;;;;;;11.45;5.20;;;;;;;16.34;78.69;100502.77;1697788;83;25863;-55
2022/05/30 04:41:47;;;;;;;7.62;4.60;;;;;;;16.30;78.51;100503.64;1697756;84;25781;-55
2022/05/30 04:44:24;;;;;;;9.48;4.55;;;;;;;16.30;78.71;100486.48;1693160;83;25532;-55
2022/05/30 04:46:58;;;;;;;14.58;4.90;;;;;;;16.31;78.79;100520.26;1652240;84;27503;-55
2022/05/30 04:49:27;;;;;;;7.37;4.70;;;;;;;16.29;78.25;100507.38;1682271;85;25779;-56
2022/05/30 04:51:54;;;;;;;5.45;4.37;;;;;;;16.32;79.22;100497.49;1714044;82;25806;-55
2022/05/30 04:54:22;;;;;;;8.58;4.83;;;;;;;16.28;79.65;100483.44;1723891;83;25777;-55
2022/05/30 04:57:07;;;;;;;14.20;5.37;;;;;;;16.23;79.89;100490.43;1723749;83;25688;-54
2022/05/30 04:59:41;;;;;;;20.15;5.78;;;;;;;16.17;79.39;100505.59;1723866;82;27648;-54
2022/05/30 05:02:12;;;;;;;10.05;5.50;;;;;;;16.22;79.52;100505.88;1723770;83;25824;-55
2022/05/30 05:04:40;;;;;;;7.95;5.45;;;;;;;16.26;79.22;100501.80;1723823;82;25707;-54
2022/05/30 05:07:08;;;;;;;9.00;4.35;;;;;;;16.37;79.32;100505.95;1724182;82;25742;-55
2022/05/30 05:09:44;;;;;;;8.55;4.85;;;;;;;16.40;79.15;100492.52;1723784;82;26095;-55
2022/05/30 05:12:24;;;;;;;13.93;5.00;;;;;;;16.39;79.06;100484.91;1685395;83;28384;-55
2022/05/30 05:15:09;;;;;;;10.10;4.72;;;;;;;16.42;78.76;100484.52;1723985;83;25785;-55
2022/05/30 05:17:46;;;;;;;8.43;5.10;;;;;;;16.48;79.06;100502.48;1722928;83;26025;-54
2022/05/30 05:20:14;;;;;;;5.10;4.60;;;;;;;16.48;78.78;100503.31;1724051;83;25932;-55
2022/05/30 05:22:41;;;;;;;7.70;5.72;;;;;;;16.52;78.75;100503.30;1724224;83;25745;-54
2022/05/30 05:25:10;;;;;;;11.70;4.92;;;;;;;16.54;78.59;100510.73;1724073;83;27635;-55
2022/05/30 05:27:40;;;;;;;7.22;5.22;;;;;;;16.54;79.12;100536.52;1722960;83;25774;-55
2022/05/30 05:30:10;;;;;;;6.28;4.60;;;;;;;16.56;78.84;100558.92;1692932;84;25497;-55
2022/05/30 05:32:37;;;;;;;6.55;4.17;;;;;;;16.56;78.56;100539.91;1693229;84;25869;-55
2022/05/30 05:35:06;;;;;;;9.00;4.22;;;;;;;16.61;78.39;100567.88;1692971;84;25511;-56
2022/05/30 05:37:34;;;;;;;7.12;4.65;;;;;;;16.65;78.28;100572.44;1693251;84;27513;-55
2022/05/30 05:40:08;;;;;;;10.63;4.40;;;;;;;16.72;78.10;100568.82;1689575;83;25751;-55
2022/05/30 05:42:37;;;;;;;7.85;4.53;;;;;;;16.79;77.70;100572.16;1694895;84;25775;-56
2022/05/30 05:45:07;;;;;;;9.35;4.78;;;;;;;16.80;77.64;100566.56;1693023;84;26542;-56
2022/05/30 05:47:35;;;;;;;12.30;4.75;;;;;;;16.83;77.40;100563.99;1657407;86;25729;-54
2022/05/30 05:50:04;;;;;;;9.30;3.72;;;;;;;16.91;77.24;100574.79;1657337;86;27495;-55
2022/05/30 05:52:35;;;;;;;10.65;4.50;;;;;;;17.00;77.09;100575.08;1657533;86;25805;-53
2022/05/30 05:55:06;;;;;;;6.12;3.77;;;;;;;17.08;76.57;100554.29;1656923;86;25888;-54
2022/05/30 05:57:33;;;;;;;5.95;3.95;;;;;;;17.09;76.36;100548.66;1657258;86;25837;-56
2022/05/30 06:00:00;;;;;;;10.78;4.35;;;;;;;17.13;76.29;100540.48;1657254;86;25780;-54
2022/05/30 06:02:30;;;;;;;4.22;3.30;;;;;;;17.21;76.25;100539.56;1657365;85;28368;-53
2022/05/30 06:04:57;;;;;;;5.65;3.83;;;;;;;17.28;76.20;100532.34;1662273;86;25760;-54
2022/05/30 06:07:29;;;;;;;6.75;4.10;;;;;;;17.34;75.79;100536.20;1659375;86;25817;-54
2022/05/30 06:09:57;;;;;;;4.45;3.83;;;;;;;17.34;75.27;100539.75;1657991;85;25847;-54
2022/05/30 06:12:36;;;;;;;6.12;3.37;;;;;;;17.35;75.30;100538.72;1661779;84;25837;-54
2022/05/30 06:15:05;;;;;;;4.30;3.12;;;;;;;17.36;75.08;100538.19;1663992;86;27553;-54
2022/05/30 06:17:34;;;;;;;10.75;3.47;;;;;;;17.40;74.93;100544.09;1644955;86;25775;-54
2022/05/30 06:20:01;;;;;;;4.03;2.83;;;;;;;17.41;74.61;100539.85;1663964;84;25925;-54
2022/05/30 06:22:29;;;;;;;4.80;3.37;;;;;;;17.41;74.29;100538.49;1638998;85;25740;-53
2022/05/30 06:24:56;;;;;;;4.65;2.90;;;;;;;17.35;74.06;100544.16;1664288;86;25789;-54
2022/05/30 06:27:37;;;;;;;9.50;3.62;;;;;;;17.36;73.96;100545.85;1667847;84;27678;-53
2022/05/30 06:30:11;;;;;;;7.65;4.03;;;;;;;17.39;73.81;100554.67;1692262;83;25745;-54
2022/05/30 06:32:38;;;;;;;11.75;4.00;;;;;;;17.44;74.05;100559.85;1695666;83;25749;-54
2022/05/30 06:35:13;;;;;;;14.47;4.42;;;;;;;17.50;73.95;100561.84;1695249;84;25805;-54
2022/05/30 06:37:41;;;;;;;15.03;4.30;;;;;;;17.61;74.07;100559.69;1695641;83;25674;-54
2022/05/30 06:40:11;;;;;;;17.15;4.75;;;;;;;17.74;74.53;100562.58;1695682;84;27452;-54
2022/05/30 06:42:42;;;;;;;16.25;5.20;;;;;;;17.86;74.60;100571.63;1695689;83;27477;-55
2022/05/30 06:45:29;;;;;;;20.95;6.00;;;;;;;17.98;74.34;100579.66;1695758;83;25754;-54
2022/05/30 06:48:15;;;;;;;13.55;5.08;;;;;;;18.15;74.31;100585.20;1695681;84;26454;-54
2022/05/30 06:51:11;;;;;;;12.40;5.50;;;;;;;18.32;73.89;100580.92;1689135;82;25737;-55
2022/05/30 06:53:40;;;;;;;23.38;5.05;;;;;;;18.39;72.55;100585.06;1691719;84;28194;-55
2022/05/30 06:56:24;;;;;;;14.65;4.00;;;;;;;18.46;72.55;100590.91;1692095;84;25531;-55
2022/05/30 06:58:52;;;;;;;15.80;4.05;;;;;;;18.51;72.16;100591.70;1691544;84;25660;-55
2022/05/30 07:01:24;;;;;;;9.03;3.33;;;;;;;18.57;71.69;100575.10;1689658;83;26344;-54
2022/05/30 07:04:09;;;;;;;9.55;4.83;;;;;;;18.64;70.79;100581.45;1677457;85;25755;-55
2022/05/30 07:06:55;;;;;;;26.30;5.20;;;;;;;18.68;70.82;100586.00;1656537;86;27534;-55
2022/05/30 07:09:23;;;;;;;28.25;4.30;;;;;;;18.65;70.48;100586.41;1686840;84;26519;-54
2022/05/30 07:11:55;;;;;;;17.80;5.25;;;;;;;18.67;70.45;100581.08;1684608;85;25800;-55
2022/05/30 07:14:24;;;;;;;21.33;4.87;;;;;;;18.71;70.29;100582.36;1684967;85;25883;-56
2022/05/30 07:16:51;;;;;;;14.23;5.05;;;;;;;18.75;70.11;100582.81;1684916;83;25834;-55
2022/05/30 07:19:19;;;;;;;16.73;4.78;;;;;;;18.82;69.95;100578.80;1684944;85;27530;-55
2022/05/30 07:21:50;;;;;;;13.83;4.37;;;;;;;18.83;69.53;100576.40;1685179;85;26002;-55
2022/05/30 07:24:38;;;;;;;19.85;4.35;;;;;;;18.83;69.10;100585.94;1684899;85;25550;-55
2022/05/30 07:27:13;;;;;;;11.83;3.83;;;;;;;18.82;69.48;100580.16;1661382;85;25809;-53
2022/05/30 07:29:41;;;;;;;14.53;3.70;;;;;;;18.76;69.35;100581.27;1675552;84;25628;-55
2022/05/30 07:32:27;;;;;;;14.98;4.17;;;;;;;18.82;69.67;100590.55;1689859;84;27495;-56
2022/05/30 07:35:12;;;;;;;11.00;3.22;;;;;;;18.87;69.70;100603.59;1688293;85;25725;-55
2022/05/30 07:37:57;;;;;;;8.63;3.10;;;;;;;18.92;69.25;100601.98;1688528;83;25549;-56
2022/05/30 07:40:31;;;;;;;5.15;2.85;;;;;;;18.96;68.66;100604.32;1647549;84;25967;-53
2022/05/30 07:43:18;;;;;;;8.00;3.00;;;;;;;18.96;68.91;100596.97;1607512;89;25891;-55
2022/05/30 07:45:49;;;;;;;7.92;3.22;;;;;;;19.02;68.78;100584.45;1610236;87;27483;-53
2022/05/30 07:48:19;;;;;;;9.78;3.30;;;;;;;19.13;68.62;100579.00;1661332;83;25866;-55
2022/05/30 07:50:59;;;;;;;10.45;3.87;;;;;;;19.25;68.35;100569.22;1651320;84;25844;-55
2022/05/30 07:53:41;;;;;;;18.60;3.90;;;;;;;19.31;67.28;100578.48;1656769;86;25843;-56
2022/05/30 07:56:17;;;;;;;8.73;3.47;;;;;;;19.45;67.59;100580.29;1673901;85;25829;-56
2022/05/30 07:58:46;;;;;;;10.88;3.45;;;;;;;19.58;67.20;100586.34;1670413;85;28166;-55
2022/05/30 08:01:21;;;;;;;9.45;3.60;;;;;;;19.64;66.47;100574.62;1670389;85;25841;-55
2022/05/30 08:03:52;;;;;;;15.60;3.33;;;;;;;19.72;66.43;100572.27;1690957;83;26031;-56
2022/05/30 08:06:37;;;;;;;7.33;3.40;;;;;;;19.78;65.68;100576.05;1685118;83;25850;-55
2022/05/30 08:09:22;;;;;;;8.70;3.22;;;;;;;19.85;65.48;100570.16;1713022;83;25726;-56
2022/05/30 08:11:57;;;;;;;14.00;3.37;;;;;;;19.94;65.57;100573.54;1686955;82;27509;-54
2022/05/30 08:14:40;;;;;;;;;;;;;;;20.01;65.81;100578.50;1602953;88;25750;-56
2022/05/30 08:17:07;;;;;;;8.95;3.62;;;;;;;20.09;65.68;100583.78;1670654;82;25529;-56
2022/05/30 08:19:35;;;;;;;13.13;4.20;;;;;;;20.13;65.06;100582.34;1702227;83;25851;-55
2022/05/30 08:22:07;;;;;;;11.22;3.65;;;;;;;20.16;64.87;100582.45;1708866;82;25950;-56
2022/05/30 08:24:42;;;;;;;16.05;3.58;;;;;;;20.22;64.81;100580.25;1688560;84;27545;-55
2022/05/30 08:27:14;;;;;;;18.17;3.95;;;;;;;20.34;64.11;100568.23;1685455;82;25833;-56
2022/05/30 08:29:43;;;;;;;20.65;4.15;;;;;;;20.42;64.29;100571.28;1706316;82;25743;-56
2022/05/30 08:32:12;;;;;;;13.28;5.08;;;;;;;20.55;64.25;100571.83;1699950;83;26577;-55
2022/05/30 08:34:59;;;;;;;11.83;4.10;;;;;;;20.68;63.97;100568.28;1699983;83;25925;-55
2022/05/30 08:37:30;;;;;;;12.85;5.00;;;;;;;20.81;63.30;100564.24;1708677;83;27445;-56
2022/05/30 08:42:43;;;;;;;17.75;4.67;;;;;;;21.09;62.88;100569.50;1721447;83;25816;-55
2022/05/30 08:45:17;;;;;;;11.55;4.28;;;;;;;21.23;62.29;100562.13;1720518;83;25758;-56
2022/05/30 08:47:59;;;;;;;12.28;3.37;;;;;;;21.39;62.25;100562.72;1646744;85;25834;-55
2022/05/30 08:51:14;;;;;;;12.85;3.85;;;;;;;21.67;61.89;100560.27;1691260;84;27485;-55
2022/05/30 08:53:51;;;;;;;13.75;3.17;;;;;;;21.92;61.43;100567.80;1683975;84;25798;-56
2022/05/30 08:56:34;;;;;;;13.70;3.00;;;;;;;22.20;61.02;100573.76;1691018;84;25656;-56
2022/05/30 08:59:34;;;;;;;9.90;3.87;;;;;;;22.41;60.69;100571.79;1713909;82;25875;-56
2022/05/30 09:02:07;;;;;;;14.55;2.92;;;;;;;22.60;60.17;100569.98;1657256;86;25793;-55
2022/05/30 09:04:55;;;;;;;12.43;3.67;;;;;;;22.89;59.78;100570.95;1657247;86;27485;-55
2022/05/30 09:07:33;;;;;;;13.25;3.37;;;;;;;23.24;59.61;100567.73;1657096;86;26044;-55
2022/05/30 09:10:09;;;;;;;8.68;3.55;;;;;;;23.47;58.45;100563.48;1657406;86;25725;-55
2022/05/30 09:13:05;;;;;;;9.75;3.17;;;;;;;23.72;57.49;100573.03;1682565;82;25882;-55
2022/05/30 09:15:37;;;;;;;12.55;2.60;;;;;;;24.03;56.23;100572.06;1704058;84;25471;-56
2022/05/30 09:18:20;;;;;;;10.93;2.95;;;;;;;24.30;55.99;100570.33;1676713;85;27476;-55
2022/05/30 09:20:49;;;;;;;9.90;3.03;;;;;;;24.47;54.93;100574.66;1683682;85;25718;-56
2022/05/30 09:23:21;;;;;;;13.68;3.52;;;;;;;24.71;53.92;100567.88;1660091;85;25569;-56
2022/05/30 09:26:07;;;;;;;14.03;3.40;;;;;;;25.03;53.28;100577.73;1683523;85;25786;-55
2022/05/30 09:28:49;;;;;;;14.35;3.37;;;;;;;25.12;51.60;100575.76;1683997;84;25805;-56
2022/05/30 09:31:52;;;;;;;13.70;3.08;;;;;;;24.99;50.82;100585.08;1684964;84;27566;-55
2022/05/30 09:34:47;;;;;;;12.45;2.70;;;;;;;24.96;50.63;100596.58;1639124;85;25827;-55
2022/05/30 09:37:37;;;;;;;21.82;3.15;;;;;;;24.94;50.00;100595.11;1642698;84;25778;-59
2022/05/30 09:40:08;;;;;;;11.43;2.95;;;;;;;24.97;50.83;100600.98;1684382;85;26483;-57
2022/05/30 09:42:40;;;;;;;11.33;3.55;;;;;;;24.90;50.50;100603.00;1667561;85;25901;-56
2022/05/30 09:45:15;;;;;;;14.15;3.55;;;;;;;24.87;50.20;100599.89;1676950;83;27595;-57
2022/05/30 09:48:11;;;;;;;13.38;3.17;;;;;;;24.78;49.95;100612.61;1632794;84;25903;-56
2022/05/30 09:50:54;;;;;;;17.95;3.05;;;;;;;24.76;49.79;100607.05;1645540;86;25740;-56
2022/05/30 09:53:50;;;;;;;9.78;2.72;;;;;;;24.75;50.06;100600.69;1661717;86;25903;-57
2022/05/30 09:56:19;;;;;;;12.98;3.83;;;;;;;24.75;49.85;100603.99;1670579;84;25694;-55
2022/05/30 09:59:20;;;;;;;11.70;3.05;;;;;;;24.66;50.27;100602.92;1670395;85;28260;-56
2022/05/30 10:01:54;;;;;;;13.10;3.90;;;;;;;24.69;50.39;100606.63;1700074;82;26030;-57
2022/05/30 10:04:41;;;;;;;10.45;3.40;;;;;;;24.87;50.08;100606.77;1703591;83;25789;-57
2022/05/30 10:07:17;;;;;;;8.75;3.00;;;;;;;25.02;49.86;100607.70;1705068;83;26453;-57
2022/05/30 10:10:03;;;;;;;10.82;2.75;;;;;;;25.45;49.06;100607.95;1698278;83;25973;-56
2022/05/30 10:12:37;;;;;;;6.78;2.58;;;;;;;25.85;49.26;100605.83;1684722;84;27482;-56
2022/05/30 10:15:27;;;;;;;6.30;2.35;;;;;;;26.13;47.00;100611.13;1690225;84;33270;-56
2022/05/30 10:18:18;;;;;;;13.85;2.50;;;;;;;26.14;45.48;100625.73;1691360;83;25751;-56
2022/05/30 10:21:11;;;;;;;8.30;2.67;;;;;;;26.05;46.14;100610.92;1685758;83;25944;-56
2022/05/30 10:30:52;;;;;;;9.90;2.70;;;;;;;27.09;43.67;100619.80;1660187;86;25744;-56
2022/05/30 10:34:02;;;;;;;10.70;2.27;;;;;;;27.60;42.82;100623.41;1699171;83;26358;-56
2022/05/30 10:36:58;;;;;;;10.82;2.90;;;;;;;27.51;42.13;100613.87;1684695;83;26079;-56
2022/05/30 10:40:03;;;;;;;10.25;2.62;;;;;;;27.39;42.88;100619.45;1691192;83;25928;-56
2022/05/30 10:42:40;;;;;;;7.37;2.92;;;;;;;27.80;43.07;100611.80;1688698;84;27534;-56
2022/05/30 10:45:12;;;;;;;9.88;2.50;;;;;;;28.56;42.32;100607.47;1679988;83;25904;-57
2022/05/30 10:47:48;;;;;;;10.75;2.62;;;;;;;29.11;41.08;100610.75;1689504;83;25709;-56
2022/05/30 10:50:42;;;;;;;11.35;2.60;;;;;;;29.74;41.08;100600.39;1700634;83;26598;-56
2022/05/30 10:53:04;;;;;;;12.25;2.92;;;;;;;29.94;40.31;100596.94;1702423;82;25886;-56
2022/05/30 10:55:48;;;;;;;13.75;2.77;;;;;;;29.85;39.52;100599.91;1681917;83;26979;-56
2022/05/30 10:58:23;;;;;;;10.30;2.58;;;;;;;29.43;39.83;100605.20;1680441;84;25704;-56
2022/05/30 11:01:01;;;;;;;12.90;3.22;;;;;;;29.98;39.42;100596.66;1696802;82;25737;-56
2022/05/30 11:03:50;;;;;;;9.03;2.90;;;;;;;30.74;39.26;100591.06;1696518;83;25818;-56
2022/05/30 11:06:31;;;;;;;11.15;3.37;;;;;;;31.69;37.82;100590.74;1670270;84;25796;-56
2022/05/30 11:09:17;;;;;;;9.13;2.58;;;;;;;32.60;36.15;100585.55;1697577;84;27491;-56
2022/05/30 11:12:02;;;;;;;7.62;2.30;;;;;;;33.13;34.83;100582.67;1639649;84;25909;-56
2022/05/30 11:14:41;;;;;;;8.33;2.08;;;;;;;33.58;34.12;100586.11;1697411;84;26375;-56
2022/05/30 11:17:30;;;;;;;11.63;2.62;;;;;;;33.17;33.89;100587.91;1682028;84;26562;-58
2022/05/30 11:20:21;;;;;;;15.43;2.47;;;;;;;33.13;34.03;100581.27;1700109;82;43981;-56
2022/05/30 11:22:54;;;;;;;9.83;2.22;;;;;;;33.15;34.53;100577.61;1708486;83;27126;-56
2022/05/30 11:25:29;;;;;;;10.80;2.30;;;;;;;33.12;33.86;100579.61;1700385;83;25801;-56
2022/05/30 11:28:10;;;;;;;8.70;2.27;;;;;;;33.14;33.50;100573.16;1690991;83;25716;-56
2022/05/30 11:30:46;;;;;;;10.95;2.72;;;;;;;33.32;33.74;100573.00;1674385;85;25805;-56
2022/05/30 11:33:47;;;;;;;29.25;2.42;;;;;;;33.68;33.38;100569.26;1659406;85;25775;-56
2022/05/30 11:36:35;;;;;;;5.75;1.67;;;;;;;34.31;32.34;100567.34;1682509;83;27404;-56
2022/05/30 11:39:22;;;;;;;13.93;2.22;;;;;;;35.03;31.47;100564.02;1685359;85;25833;-56
2022/05/30 11:42:07;;;;;;;10.50;2.20;;;;;;;35.77;29.95;100558.73;1685657;85;25674;-56
2022/05/30 11:45:00;;;;;;;14.98;1.90;;;;;;;36.27;28.44;100562.95;1685494;85;26432;-56
2022/05/30 11:47:44;;;;;;;9.70;2.87;;;;;;;36.74;27.71;100554.86;1685620;85;25487;-56
2022/05/30 11:50:34;;;;;;;5.08;1.85;;;;;;;36.74;28.08;100559.88;1685385;85;27545;-57
2022/05/30 11:53:47;;;;;;;6.80;2.40;;;;;;;37.25;28.01;100551.31;1685526;85;27292;-57
2022/05/30 11:56:34;;;;;;;14.80;2.50;;;;;;;37.83;26.42;100545.19;1681236;83;25834;-55
2022/05/30 11:59:33;;;;;;;8.05;2.08;;;;;;;36.87;27.18;100546.13;1696833;83;25836;-55
2022/05/30 12:02:04;;;;;;;6.60;2.20;;;;;;;36.79;27.02;100547.16;1665811;85;25894;-57
2022/05/30 12:04:53;;;;;;;10.28;2.33;;;;;;;37.35;25.27;100552.41;1691948;84;27488;-57
2022/05/30 12:08:10;;;;;;;7.80;2.37;;;;;;;37.73;25.28;100553.32;1684058;85;25799;-56
2022/05/30 12:10:54;;;;;;;3.72;1.55;;;;;;;38.18;24.95;100547.23;1683864;85;25827;-56
2022/05/30 12:13:46;;;;;;;8.58;1.82;;;;;;;38.87;24.64;100549.78;1683910;84;25870;-56
2022/05/30 12:16:24;;;;;;;4.58;1.72;;;;;;;39.13;23.68;100557.34;1686089;84;25470;-56
2022/05/30 12:24:39;;;;;;;7.35;1.75;;;;;;;39.74;22.02;100552.06;1653679;85;25776;-57